Погода METAR - Новосибирск (Толмачево)

Кемерово, Абакан, Красноярск, Новосибирск
Код METAR: UNNT 121200Z 03003MPS CAVOK 25/14 Q1010 R07/090070 R34/////// NOSIG RMK QFE747/0997

Погода - Сейчас

Время: 2022-08-12 19:00, местное
Направление ветра: Северо-восток (30°)
Скорость ветра: 3 м/с
Видимость: более 10км, отсутствие осадков и облаков
Температура: 25°C
Точка росы: 14°C
Атмосферное давление: 1010 гПа

Архив погоды

Время, местное Направление Скорость, м/с Температура, °C Точка росы, °C Давление, гПа
2022-08-12 19:00 СВ (30°) 3 25 14 1010
2022-08-11 14:30 ВСВ (70°) 5 28 13 1010
2022-08-11 10:00 ВСВ (60°) 3 24 15 1011
2022-08-10 19:30 ССВ (20°) 3 26 12 1010
2022-08-10 00:00 ССВ (20°) 3 18 14 1010
2022-08-08 21:00 СВ (30°) 2 20 16 1011
2022-08-08 06:00 С (10°) 2 14 14 1009
2022-08-08 05:30 С (360°) 2 14 14 1009
2022-08-05 16:00 ССВ (20°) 4 25 8 1016
2022-08-04 21:00 С (350°) 2 19 8 1017
2022-08-02 22:30 С (10°) 2 16 11 1012
2022-08-02 06:00 СВ (30°) 3 15 12 1007
2022-08-02 03:30 ССВ (20°) 2 15 12 1007
2022-07-30 21:30 С (10°) 2 22 17 1003
2022-07-29 16:00 ВСВ (70°) 5 29 13 1004
2022-07-28 14:00 ВСВ (60°) 4 28 16 1006
2022-07-23 04:30 З (270°) 3 14 14 1001
2022-07-21 11:00 ЮВ (140°) 5 19 16 1000
2022-07-18 00:00 З (280°) 3 11 9 1005
2022-07-17 16:00 СЗ (320°) 9 21 10 1003
2022-07-16 01:00 Штиль 0 13 12 1011
2022-07-15 16:30 В (80°) 2 21 10 1012
2022-07-14 11:30 ССЗ (340°) 2 19 8 1018
2022-07-12 02:30 С (360°) 1 14 11 1015
2022-07-10 22:00 С (10°) 2 23 17 1011
2022-07-10 21:30 С (360°) 2 25 18 1011
2022-07-10 15:30 ВСВ (60°) 4 29 14 1011
2022-07-09 17:00 ССВ (20°) 5 25 14 1010
2022-07-07 09:30 Переменный 1 15 15 1009
2022-07-05 12:00 В (80°) 6 23 12 997
2022-07-05 02:00 СВ (40°) 1 14 12 1001
2022-07-02 20:30 З (280°) 4 18 9 1005
2022-07-02 18:00 ЗСЗ (290°) 7 19 10 1005
2022-07-02 01:30 ЗЮЗ (240°) 5 13 10 1003
2022-06-30 23:00 ЮЗ (230°) 4 14 6 1001
2022-06-29 07:00 ЮЮВ (150°) 4 15 13 1005
2022-06-28 12:30 ЗЮЗ (250°) 7 18 11 1006
2022-06-28 05:00 ЗЮЗ (240°) 5 12 10 1002
2022-06-28 00:00 З (270°) 4 16 15 998
2022-06-26 17:00 ЮЗ (210°) 4, порывы до 11 32 18 992
2022-06-26 08:30 ЮВ (130°) 5 20 20 998
2022-06-24 18:00 З (280°) 6 24 15 1006
2022-06-24 14:00 З (280°) 5 23 15 1005
2022-06-23 10:00 Ю (170°) 3 22 18 1001
2022-06-21 23:00 ВЮВ (110°) 3 19 14 1000
2022-06-21 22:00 ЮВ (120°) 3 21 14 1000
2022-06-18 11:00 ЗЮЗ (240°) 6 18 14 1003
2022-06-17 09:00 ЮЗ (230°) 4 17 12 1004